Tiempo atmosférico en la estación meteorológica de Larraga, Navarra (375 m.)



Fecha
DESCASC
Temp. máxima en grados centígrados (hora)
DESCASC
Temp. mínima en grados centígrados (hora)
DESCASC
Temp. media en grados centígrados
DESCASC
Racha de viento máxima en m/sg (hora)
DESCASC
Velocidad máxima media en intervalos de 10 minutos(hora)
DESCASC
Precipitaciones diarias en mm
DESCASC
Precipitaciones de 00:00 a 06:00 en mm
DESCASC
Precipitaciones de 06:00 a 12:00 en mm
DESCASC
Precipitaciones de 12:00 a 18:00 en mm
DESCASC
Precipitaciones de 18:00 a 24:00 en mm
DESCASC
19-09-2019 27.8 (16:50) 13.9 (08:10) 20.8 7.5 (21:30) 4.72 (21:30) 0 0 0 0 0
18-09-2019 26.6 (17:20) 16.5 (07:50) 21.6 8.06 (18:50) 5.28 (03:10) 7.6 0 7.6 0 0
17-09-2019 30 (16:20) 16.2 (00:00) 23.1 7.22 (22:20) 5 (22:20) 0 0 0 0 0
16-09-2019 -- (--) -- (--) -- -- (--) -- (--) -- -- -- 0 0
15-09-2019 -- (--) -- (--) -- -- (--) -- (--) -- 0.2 0.8 0.8 --
14-09-2019 29.3 (17:00) 14.2 (00:00) 21.7 11.11 (17:00) 7.78 (17:00) 0 0 0 0 0
13-09-2019 28.4 (13:50) 13 (00:00) 20.7 13.33 (16:20) 8.89 (15:30) 0 0 0 0 0
12-09-2019 29.5 (17:20) 11.2 (00:00) 20.3 11.11 (20:50) 7.22 (20:30) 0 0 0 0 0
11-09-2019 23.3 (14:20) 14.5 (00:00) 18.9 17.78 (13:50) 11.39 (13:50) 0 0 0 0 0
10-09-2019 19 (17:10) 11 (07:40) 15 16.39 (15:50) 12.5 (15:50) 0.2 0 0.2 0 0
09-09-2019 24.8 (16:20) 7.2 (07:30) 16 10 (18:40) 6.94 (18:50) 0 0 0 0 0
08-09-2019 23.5 (16:10) 11.5 (00:00) 17.5 11.67 (16:50) 7.78 (16:50) 0 0 0 0 0
07-09-2019 23.4 (15:40) 10.4 (00:00) 16.9 13.61 (17:20) 8.61 (17:50) 0 0 0 0 0
06-09-2019 21 (15:30) 11.3 (00:00) 16.2 15.56 (11:40) 10.56 (10:40) 0 0 0 0 0
05-09-2019 20.7 (14:20) 13.9 (00:00) 17.3 17.5 (14:20) 9.44 (14:20) 0 0 0 0 0
04-09-2019 27.3 (14:50) 11.5 (00:00) 19.4 14.44 (18:20) 9.17 (19:00) 0 0 0 0 0
03-09-2019 27.9 (16:40) 11.7 (00:00) 19.8 10.28 (19:20) 7.22 (18:50) 0 0 0 0 0
02-09-2019 23.3 (16:10) 14.7 (00:00) 19 16.11 (12:20) 8.61 (19:50) 0 0 0 0 0
01-09-2019 26.3 (13:40) 16.7 (00:00) 21.5 12.22 (18:20) 7.78 (18:40) 0 0 0 0 0
31-08-2019 35.4 (17:10) 17.4 (00:00) 26.4 13.06 (19:20) 8.61 (20:00) 0 0 0 0 0
30-08-2019 34.4 (18:10) 17.1 (00:00) 25.8 11.11 (00:20) 6.67 (00:20) 0 0 0 0 0
29-08-2019 33.2 (16:20) 16.4 (00:00) 24.8 10.56 (22:20) 6.67 (22:00) 0 0 0 0 0
28-08-2019 31.4 (17:10) 15.3 (00:00) 23.3 10.28 (22:10) 6.94 (22:10) 0 0 0 0 0
27-08-2019 28.1 (16:30) 16.5 (00:00) 22.3 10.28 (19:50) 6.11 (19:50) 2 2 0 0 0
26-08-2019 30.4 (17:00) 16.3 (00:00) 23.3 20.28 (21:40) 13.89 (22:10) 0.6 0 0 0 0.6
25-08-2019 34.3 (17:10) 17.2 (00:00) 25.8 10.28 (21:20) 7.22 (23:40) 0 0 0 0 0
24-08-2019 34 (17:10) 14.7 (00:00) 24.3 8.33 (13:00) 5.56 (12:10) 0 0 0 0 0
23-08-2019 32.7 (17:50) 10.6 (00:00) 21.7 8.61 (12:20) 5.28 (16:50) 0 0 0 0 0

Gráficas

Temp. máximas Temp. mínimas Temp. medias Precipitaciones Rachas de viento máximas Velocidades máximas media en intervalos de 10 minutos

Datos horarios

Fecha y hora oficial Temperatura (ºC) Velocidad del viento (km/h) Dirección del viento Racha (km/h) Dirección de racha Precipitación (mm) Presión (hPa) Tendencia (hPa) Humedad (%)
2019-09-21 23:00:00 21.7 23 Sudeste 32 Sudeste 0 -- -- 63
2019-09-21 22:00:00 21.6 24 Sudeste 35 Sudeste 0 -- -- 62
2019-09-21 21:00:00 22.8 26 Sudeste 38 Sudeste 0 -- -- 55
2019-09-21 20:00:00 23.5 21 Sudeste 33 Sur 0 -- -- 53
2019-09-21 19:00:00 25.2 21 Sur 34 Sur 0 -- -- 46
2019-09-21 18:00:00 25.3 21 Sudeste 43 Sudeste 0 -- -- 50
2019-09-21 17:00:00 26 25 Sudeste 41 Sudeste 0 -- -- 50
2019-09-21 16:00:00 25.2 25 Sudeste 50 Sudeste 0 -- -- 53
2019-09-21 15:00:00 25.1 34 Sudeste 51 Sudeste 0 -- -- 55
2019-09-21 14:00:00 24.7 32 Sudeste 46 Sudeste 0 -- -- 56
2019-09-21 13:00:00 23.3 31 Sudeste 47 Sudeste 0 -- -- 62
2019-09-21 12:00:00 21.9 34 Sudeste 57 Sudeste 0 -- -- 68
2019-09-21 11:00:00 19.8 34 Sudeste 53 Sudeste 0 -- -- 74
2019-09-21 10:00:00 19.2 32 Sudeste 44 Sudeste 0 -- -- 82
2019-09-21 09:00:00 18.2 31 Sudeste 41 Sudeste 0 -- -- 86
2019-09-21 08:00:00 18 26 Sudeste 35 Sudeste 0 -- -- 87
2019-09-21 07:00:00 17.8 20 Sudeste 37 Sudeste 0 -- -- 88
2019-09-21 06:00:00 17.6 23 Sudeste 40 Sudeste 0 -- -- 89
2019-09-21 05:00:00 17.4 26 Sudeste 36 Sudeste 0 -- -- 87
2019-09-21 04:00:00 17.6 22 Sudeste 32 Sur 0 -- -- 83
2019-09-21 03:00:00 18.2 13 Sur 27 Sudeste 0.2 -- -- 79
2019-09-21 02:00:00 18.3 17 Este 25 Sudeste 0 -- -- 84
2019-09-21 01:00:00 18.1 5 Sur 13 Sur 0 -- -- 84
2019-09-21 00:00:00 19.4 12 Sudeste 32 Sudeste 0 -- -- 82
2019-09-20 23:00:00 19.9 5 Sudeste 20 Este 0 -- -- 75
2019-09-20 22:00:00 20.5 17 Sudeste 47 Sudeste 0 -- -- 69
2019-09-20 21:00:00 21.4 27 Sudeste 50 Sudeste 0 -- -- 69
2019-09-20 20:00:00 24.5 27 Sudeste 47 Sudeste 0 -- -- 52
2019-09-20 19:00:00 25.2 25 Sudeste 50 Sudeste 0 -- -- 53
2019-09-20 18:00:00 25.7 27 Sudeste 47 Sudeste 0 -- -- 54
2019-09-20 17:00:00 27.1 36 Sudeste 50 Sudeste 0 -- -- 50
2019-09-20 16:00:00 27.6 35 Sudeste 48 Sudeste 0 -- -- 49
2019-09-20 15:00:00 26.5 29 Sudeste 45 Sudeste 0 -- -- 52
2019-09-20 14:00:00 26.2 34 Sudeste 59 Sudeste 0 -- -- 54
2019-09-20 13:00:00 24.2 36 Sudeste 55 Sudeste 0 -- -- 57
2019-09-20 12:00:00 23.5 30 Sudeste 50 Sudeste 0 -- -- 63
2019-09-20 11:00:00 22.4 30 Sudeste 43 Sudeste 0 -- -- 59
2019-09-20 10:00:00 20.3 22 Sudeste 31 Sudeste 0 -- -- 69
2019-09-20 09:00:00 17.4 9 Sudeste 15 Sudeste 0 -- -- 83
2019-09-20 08:00:00 16 9 Sudeste 15 Sudeste 0 -- -- 88
2019-09-20 07:00:00 15.8 3 Norte 8 Nordeste 0 -- -- 88
2019-09-20 06:00:00 16.9 4 Este 9 Este 0 -- -- 85
2019-09-20 05:00:00 17.2 5 Sudeste 13 Sur 0 -- -- 86
2019-09-20 04:00:00 18.2 12 Sudeste 28 Sudeste 0 -- -- 80
2019-09-20 03:00:00 19 18 Sudeste 37 Sudeste 0 -- -- 78
2019-09-20 02:00:00 19.9 23 Sudeste 33 Sudeste 0 -- -- 74
2019-09-20 01:00:00 20.2 9 Norte 18 Norte 0 -- -- 78
2019-09-20 00:00:00 20.9 13 Norte 19 Norte 0 -- -- 75
2019-09-19 23:00:00 21.9 14 Norte 23 Noroeste 0 -- -- 71
2019-09-19 22:00:00 22.2 16 Norte 27 Norte 0 -- -- 71
2019-09-19 21:00:00 23.4 12 Norte 18 Norte 0 -- -- 66
2019-09-19 20:00:00 24.3 4 Sudoeste 11 Sur 0 -- -- 56
2019-09-19 19:00:00 26.1 0 Calma 9 Sur 0 -- -- 49
2019-09-19 18:00:00 27.3 6 Sur 15 Sudeste 0 -- -- 44
2019-09-19 17:00:00 27.6 12 Sudeste 19 Sudeste 0 -- -- 44
2019-09-19 16:00:00 27.4 11 Sudeste 18 Sudeste 0 -- -- 47
2019-09-19 15:00:00 26.3 6 Sur 17 Sudeste 0 -- -- 49
2019-09-19 14:00:00 25 5 Sudeste 15 Nordeste 0 -- -- 55
2019-09-19 13:00:00 22.6 6 Norte 15 Noroeste 0 -- -- 65
2019-09-19 12:00:00 20.9 8 Norte 12 Noroeste 0 -- -- 70
2019-09-19 11:00:00 19 7 Noroeste 13 Noroeste 0 -- -- 77
2019-09-19 10:00:00 17.2 9 Noroeste 12 Noroeste 0 -- -- 86
2019-09-19 09:00:00 15.1 4 Noroeste 7 Noroeste 0 -- -- 91
2019-09-19 08:00:00 14.1 3 Sudoeste 8 Norte 0 -- -- 92
2019-09-19 07:00:00 14.6 4 Noroeste 6 Norte 0 -- -- 91
2019-09-19 06:00:00 14.9 4 Noroeste 7 Noroeste 0 -- -- 90
2019-09-19 05:00:00 15.6 6 Noroeste 8 Noroeste 0 -- -- 90
2019-09-19 04:00:00 15.7 5 Noroeste 8 Norte 0 -- -- 92
2019-09-19 03:00:00 15.6 6 Noroeste 11 Noroeste 0 -- -- 90
2019-09-19 02:00:00 16.4 3 Sudoeste 7 Sudoeste 0 -- -- 89
2019-09-19 01:00:00 17.3 3 Noroeste 9 Noroeste 0 -- -- 87
2019-09-19 00:00:00 17.9 5 Noroeste 11 Norte 0 -- -- 87
2019-09-18 23:00:00 18.3 6 Norte 9 Noroeste 0 -- -- 88
2019-09-18 22:00:00 19.3 6 Noroeste 10 Norte 0 -- -- 84
2019-09-18 21:00:00 20.4 8 Noroeste 23 Norte 0 -- -- 79
2019-09-18 20:00:00 21.6 14 Norte 27 Norte 0 -- -- 71
2019-09-18 19:00:00 23.6 16 Nordeste 29 Nordeste 0 -- -- 63
2019-09-18 18:00:00 26.3 19 Oeste 27 Oeste 0 -- -- 53
2019-09-18 17:00:00 26.3 10 Noroeste 19 Oeste 0 -- -- 54
2019-09-18 16:00:00 25.5 10 Noroeste 20 Noroeste 0 -- -- 56
2019-09-18 15:00:00 24.3 10 Noroeste 21 Noroeste 0 -- -- 64
2019-09-18 14:00:00 23.1 10 Noroeste 17 Oeste 0 -- -- 70
2019-09-18 13:00:00 22.2 5 Noroeste 12 Noroeste 0 -- -- 69
2019-09-18 12:00:00 21.1 5 Sudeste 10 Sur 0 -- -- 74
2019-09-18 11:00:00 18.4 3 Este 9 Oeste 0.4 -- -- 87
2019-09-18 10:00:00 16.7 8 Noroeste 15 Noroeste 0.8 -- -- 93
2019-09-18 09:00:00 16.5 5 Oeste 10 Oeste 0 -- -- 92
2019-09-18 08:00:00 16.5 5 Sudoeste 17 Oeste 6.2 -- -- 92
2019-09-18 07:00:00 17 6 Sur 17 Oeste 0.2 -- -- 87
2019-09-18 06:00:00 18.5 5 Sudoeste 19 Oeste 0 -- -- 74
2019-09-18 05:00:00 19.1 10 Noroeste 17 Noroeste 0 -- -- 75
2019-09-18 04:00:00 19.4 9 Noroeste 28 Oeste 0 -- -- 73
2019-09-18 03:00:00 20 18 Oeste 27 Oeste 0 -- -- 78
2019-09-18 02:00:00 19.9 5 Sudoeste 22 Sudoeste 0 -- -- 78
2019-09-18 01:00:00 19.7 5 Noroeste 10 Noroeste 0 -- -- 78
2019-09-18 00:00:00 20.6 3 Noroeste 17 Noroeste 0 -- -- 76
2019-09-17 23:00:00 21.8 10 Norte 26 Norte 0 -- -- 73
2019-09-17 22:00:00 23.3 15 Norte 23 Norte 0 -- -- 68
2019-09-17 21:00:00 23.8 13 Norte 24 Norte 0 -- -- 68
2019-09-15 18:00:00 20.3 12 Nordeste 15 Norte 0 -- -- 76
2019-09-15 17:00:00 18.3 4 Sur 36 Norte 0.8 -- -- 85
2019-09-15 16:00:00 22.5 12 Sudoeste 38 Oeste 0 -- -- 56
2019-09-15 15:00:00 25.8 15 Sur 26 Sudoeste 0 -- -- 41
2019-09-15 14:00:00 27.4 14 Sur 27 Sudeste 0 -- -- 43
2019-09-15 13:00:00 25.6 9 Este 18 Sudeste 0 -- -- 50
2019-09-15 12:00:00 23.7 9 Sudeste 15 Este 0 -- -- 56
2019-09-15 11:00:00 20.1 10 Norte 16 Noroeste 0 -- -- 77
2019-09-15 10:00:00 17.5 4 Nordeste 6 Este 0 -- -- 87
2019-09-15 09:00:00 15.8 6 Oeste 12 Noroeste 0.4 -- -- 91
2019-09-15 08:00:00 14.8 6 Noroeste 10 Norte 0.4 -- -- 88
2019-09-15 07:00:00 15.6 5 Nordeste 10 Norte 0 -- -- 81
2019-09-15 06:00:00 15.8 4 Norte 10 Norte 0 -- -- 79
2019-09-15 05:00:00 16 8 Norte 10 Norte 0 -- -- 82
2019-09-15 04:00:00 16.6 8 Norte 10 Norte 0 -- -- 82
2019-09-15 03:00:00 16.8 4 Noroeste 6 Noroeste 0.2 -- -- 81
2019-09-15 02:00:00 17.6 4 Noroeste 11 Sur 0 -- -- 74
2019-09-15 01:00:00 18.3 6 Noroeste 9 Norte 0 -- -- 73
2019-09-15 00:00:00 17.9 5 Norte 12 Noroeste 0 -- -- 77
2019-09-14 23:00:00 19.8 2 Sudeste 10 Noroeste 0 -- -- 72
2019-09-14 22:00:00 21.6 4 Sur 8 Sur 0 -- -- 61
2019-09-14 21:00:00 23 6 Sur 15 Sur 0 -- -- 60
2019-09-14 20:00:00 25.3 9 Sudeste 21 Sudeste 0 -- -- 47
2019-09-14 19:00:00 26.7 13 Sudeste 26 Sudeste 0 -- -- 43
2019-09-14 18:00:00 28.5 16 Sudeste 34 Sudeste 0 -- -- 36
2019-09-14 17:00:00 29.3 28 Sudeste 40 Sur 0 -- -- 36
2019-09-14 16:00:00 28.4 17 Sudeste 39 Sudeste 0 -- -- 38
2019-09-14 15:00:00 27.8 19 Sudeste 31 Sudeste 0 -- -- 37
2019-09-14 14:00:00 27.6 22 Sudeste 30 Sudeste 0 -- -- 39
2019-09-14 13:00:00 24.1 10 Este 17 Sudeste 0 -- -- 53
2019-09-14 12:00:00 21.4 7 Norte 10 Nordeste 0 -- -- 65
2019-09-14 11:00:00 20 3 Nordeste 6 Nordeste 0 -- -- 72
2019-09-14 10:00:00 17.8 0 Calma 5 Sudoeste 0 -- -- 84
2019-09-14 09:00:00 14.6 3 Noroeste 11 Norte 0 -- -- 94
2019-09-14 08:00:00 15 5 Norte 7 Norte 0 -- -- 92
2019-09-14 07:00:00 15.2 5 Norte 9 Noroeste 0 -- -- 91
2019-09-14 06:00:00 16.2 3 Nordeste 8 Noroeste 0 -- -- 87
2019-09-14 05:00:00 16.7 0 Calma 6 Noroeste 0 -- -- 85
2019-09-14 04:00:00 17.2 2 Sur 14 Sudeste 0 -- -- 79
2019-09-14 03:00:00 17.9 12 Sudeste 22 Este 0 -- -- 73
2019-09-14 02:00:00 16.8 2 Noroeste 8 Noroeste 0 -- -- 67
2019-09-14 01:00:00 16.9 2 Nordeste 8 Noroeste 0 -- -- 68
2019-09-14 00:00:00 17.5 0 Calma 9 Noroeste 0 -- -- 63
2019-09-13 23:00:00 18.3 4 Noroeste 7 Norte 0 -- -- 62
2019-09-13 22:00:00 19.4 2 Norte 9 Noroeste 0 -- -- 59
2019-09-13 21:00:00 20.6 4 Noroeste 8 Noroeste 0 -- -- 55
2019-09-13 20:00:00 22.1 4 Noroeste 12 Sur 0 -- -- 51
2019-09-13 19:00:00 23.3 7 Sur 18 Sudeste 0 -- -- 47
2019-09-13 18:00:00 23.5 13 Sudeste 34 Sur 0 -- -- 45
2019-09-13 17:00:00 24.5 26 Sudeste 48 Sur 0 -- -- 41
2019-09-13 16:00:00 26.6 24 Sudeste 45 Sudeste 0 -- -- 39
2019-09-13 15:00:00 28.4 29 Sudeste 40 Sudeste 0 -- -- 33
2019-09-13 14:00:00 28.4 19 Sudeste 31 Sur 0 -- -- 34
2019-09-13 13:00:00 25.5 10 Noroeste 15 Noroeste 0 -- -- 42
2019-09-13 12:00:00 23.5 7 Norte 14 Noroeste 0 -- -- 48
2019-09-13 11:00:00 21 8 Noroeste 14 Noroeste 0 -- -- 55
2019-09-13 10:00:00 18.4 9 Noroeste 15 Norte 0 -- -- 64
2019-09-13 09:00:00 14.9 7 Noroeste 11 Noroeste 0 -- -- 77
2019-09-13 08:00:00 13.8 6 Noroeste 10 Oeste 0 -- -- 79
2019-09-13 07:00:00 13.3 7 Noroeste 11 Noroeste 0 -- -- 80
2019-09-13 06:00:00 14.3 7 Noroeste 12 Noroeste 0 -- -- 77
2019-09-13 05:00:00 14.4 2 Oeste 18 Noroeste 0 -- -- 78
2019-09-13 04:00:00 14.1 14 Noroeste 15 Noroeste 0 -- -- 78
2019-09-13 03:00:00 15.5 8 Noroeste 14 Noroeste 0 -- -- 74
2019-09-13 02:00:00 15.9 12 Noroeste 15 Noroeste 0 -- -- 71
2019-09-13 01:00:00 16.4 0 Calma 17 Norte 0 -- -- 72
2019-09-13 00:00:00 18.8 12 Norte 17 Norte 0 -- -- 65
2019-09-12 23:00:00 19.5 14 Norte 22 Norte 0 -- -- 63
2019-09-12 22:00:00 20.5 18 Norte 33 Norte 0 -- -- 60
2019-09-12 21:00:00 21.8 26 Norte 40 Norte 0 -- -- 56
2019-09-12 20:00:00 24.4 21 Norte 30 Norte 0 -- -- 50
2019-09-12 19:00:00 26.9 20 Norte 27 Norte 0 -- -- 41
2019-09-12 18:00:00 28.9 7 Oeste 15 Oeste 0 -- -- 32
2019-09-12 17:00:00 28.8 3 Sur 14 Norte 0 -- -- 31
2019-09-12 16:00:00 27.8 5 Oeste 13 Sudeste 0 -- -- 33
2019-09-12 15:00:00 26.3 7 Oeste 15 Oeste 0 -- -- 36
2019-09-12 14:00:00 24.7 4 Noroeste 14 Noroeste 0 -- -- 41
2019-09-12 13:00:00 23.1 5 Oeste 14 Noroeste 0 -- -- 44
2019-09-12 12:00:00 20.9 7 Noroeste 13 Noroeste 0 -- -- 50
2019-09-12 11:00:00 19 4 Oeste 10 Oeste 0 -- -- 55
2019-09-12 10:00:00 16.7 6 Noroeste 12 Noroeste 0 -- -- 63
2019-09-12 09:00:00 13.5 5 Oeste 11 Noroeste 0 -- -- 76
2019-09-12 08:00:00 11.6 6 Noroeste 10 Noroeste 0 -- -- 81
2019-09-12 07:00:00 11.5 3 Noroeste 5 Noroeste 0 -- -- 81
2019-09-12 06:00:00 11.8 5 Oeste 12 Noroeste 0 -- -- 81
2019-09-12 05:00:00 12.1 11 Noroeste 18 Noroeste 0 -- -- 78
2019-09-12 04:00:00 13 11 Noroeste 16 Oeste 0 -- -- 78
2019-09-12 03:00:00 13.3 7 Noroeste 15 Oeste 0 -- -- 75
2019-09-12 02:00:00 13.8 10 Noroeste 23 Norte 0 -- -- 70
2019-09-12 01:00:00 15.3 15 Noroeste 28 Noroeste 0 -- -- 66
2019-09-12 00:00:00 15.2 15 Noroeste 29 Norte 0 -- -- 67
2019-09-11 23:00:00 15.6 17 Noroeste 29 Norte 0 -- -- 65
2019-09-11 22:00:00 16.4 8 Noroeste 32 Norte 0 -- -- 58
2019-09-11 21:00:00 17.5 17 Noroeste 38 Noroeste 0 -- -- 55
2019-09-11 20:00:00 18.8 28 Noroeste 49 Norte 0 -- -- 53
2019-09-11 19:00:00 20.6 28 Noroeste 57 Norte 0 -- -- 46
2019-09-11 18:00:00 21.9 29 Norte 60 Norte 0 -- -- 42
2019-09-11 17:00:00 22.5 33 Norte 49 Norte 0 -- -- 37
2019-09-11 16:00:00 22.7 33 Norte 53 Noroeste 0 -- -- 37
2019-09-11 15:00:00 22.3 38 Norte 61 Noroeste 0 -- -- 36
2019-09-11 14:00:00 22.6 36 Norte 64 Noroeste 0 -- -- 35
2019-09-11 13:00:00 21.9 38 Noroeste 57 Norte 0 -- -- 36
2019-09-11 12:00:00 21 39 Norte 60 Norte 0 -- -- 38
2019-09-11 11:00:00 20 30 Norte 57 Noroeste 0 -- -- 42
2019-09-11 10:00:00 19 29 Noroeste 51 Norte 0 -- -- 45
2019-09-11 09:00:00 17.7 29 Noroeste 48 Norte 0 -- -- 48
2019-09-11 08:00:00 16.2 19 Noroeste 47 Norte 0 -- -- 55
2019-09-11 07:00:00 16 15 Noroeste 36 Noroeste 0 -- -- 59
2019-09-11 06:00:00 16.1 28 Norte 45 Noroeste 0 -- -- 62
2019-09-11 05:00:00 16 30 Noroeste 42 Noroeste 0 -- -- 63
2019-09-11 04:00:00 15.5 26 Noroeste 39 Noroeste 0 -- -- 65
2019-09-11 03:00:00 15.4 26 Noroeste 36 Noroeste 0 -- -- 65
2019-09-11 02:00:00 14.5 13 Noroeste 46 Noroeste 0 -- -- 69
2019-09-11 01:00:00 15.4 24 Noroeste 37 Noroeste 0 -- -- 66
2019-09-11 00:00:00 15.5 25 Noroeste 40 Noroeste 0 -- -- 64
2019-09-10 23:00:00 15.3 23 Noroeste 42 Noroeste 0 -- -- 64
2019-09-10 22:00:00 15.2 22 Noroeste 39 Noroeste 0 -- -- 64
2019-09-10 21:00:00 14.6 21 Noroeste 52 Noroeste 0 -- -- 66
2019-09-10 20:00:00 16.6 28 Noroeste 45 Noroeste 0 -- -- 56
2019-09-10 19:00:00 17 33 Noroeste 53 Noroeste 0 -- -- 55
2019-09-10 18:00:00 18.1 30 Noroeste 53 Noroeste 0 -- -- 49
2019-09-10 17:00:00 18.3 33 Noroeste 54 Noroeste 0 -- -- 53
2019-09-10 16:00:00 17.4 42 Noroeste 59 Noroeste 0 -- -- 55
2019-09-10 15:00:00 18.4 30 Noroeste 52 Noroeste 0 -- -- 53
2019-09-10 14:00:00 17.2 28 Noroeste 46 Noroeste 0 -- -- 54
2019-09-10 13:00:00 16.3 34 Noroeste 55 Oeste 0 -- -- 54
2019-09-10 12:00:00 15.8 28 Noroeste 43 Oeste 0.2 -- -- 57
2019-09-10 11:00:00 13.8 23 Oeste 39 Oeste 0 -- -- 70
2019-09-10 10:00:00 13.5 23 Oeste 34 Oeste 0 -- -- 70
2019-09-10 09:00:00 12.7 16 Oeste 23 Oeste 0 -- -- 71
2019-09-10 08:00:00 11.2 20 Noroeste 27 Oeste 0 -- -- 74
2019-09-10 07:00:00 11.5 17 Oeste 24 Noroeste 0 -- -- 76
2019-09-10 06:00:00 12.9 19 Oeste 30 Oeste 0 -- -- 72
2019-09-10 05:00:00 13.9 15 Noroeste 41 Noroeste 0 -- -- 69
2019-09-10 04:00:00 14 19 Noroeste 43 Noroeste 0 -- -- 68
2019-09-10 03:00:00 15.5 18 Noroeste 32 Noroeste 0 -- -- 67
2019-09-10 02:00:00 16.6 22 Noroeste 30 Noroeste 0 -- -- 64
2019-09-10 01:00:00 16.6 17 Noroeste 33 Noroeste 0 -- -- 62
2019-09-10 00:00:00 16.2 14 Noroeste 29 Noroeste 0 -- -- 63
2019-09-09 23:00:00 15.8 12 Noroeste 33 Noroeste 0 -- -- 65
2019-09-09 22:00:00 16.6 17 Norte 25 Norte 0 -- -- 62
2019-09-09 21:00:00 17.5 12 Norte 26 Norte 0 -- -- 58
2019-09-09 20:00:00 18.5 21 Norte 35 Norte 0 -- -- 57
2019-09-09 19:00:00 20.8 25 Norte 36 Norte 0 -- -- 52
2019-09-09 18:00:00 23.2 20 Norte 26 Norte 0 -- -- 44
2019-09-09 17:00:00 24.1 6 Oeste 12 Sur 0 -- -- 30
2019-09-09 16:00:00 24.1 3 Oeste 13 Noroeste 0 -- -- 29
2019-09-09 15:00:00 23 6 Noroeste 14 Sudeste 0 -- -- 28
2019-09-09 14:00:00 21.6 9 Sudeste 16 Sudeste 0 -- -- 27
2019-09-09 13:00:00 19.6 4 Oeste 10 Noroeste 0 -- -- 39
2019-09-09 12:00:00 17.7 4 Noroeste 10 Noroeste 0 -- -- 47
2019-09-09 11:00:00 15.1 5 Norte 11 Noroeste 0 -- -- 62
2019-09-09 10:00:00 12.8 4 Noroeste 9 Noroeste 0 -- -- 72
2019-09-09 09:00:00 9.3 5 Noroeste 8 Noroeste 0 -- -- 83
2019-09-09 08:00:00 7.8 4 Noroeste 6 Noroeste 0 -- -- 88
2019-09-09 07:00:00 8.7 4 Noroeste 7 Noroeste 0 -- -- 84
2019-09-09 06:00:00 8.3 2 Oeste 13 Noroeste 0 -- -- 83
2019-09-09 05:00:00 9.5 8 Norte 9 Norte 0 -- -- 77
2019-09-09 04:00:00 10.2 8 Noroeste 13 Noroeste 0 -- -- 78
2019-09-09 03:00:00 10.7 9 Noroeste 15 Norte 0 -- -- 74
2019-09-09 02:00:00 11 15 Noroeste 19 Noroeste 0 -- -- 74
2019-09-09 01:00:00 11.5 19 Noroeste 25 Noroeste 0 -- -- 74
2019-09-09 00:00:00 11.8 22 Noroeste 25 Noroeste 0 -- -- 72
2019-09-08 23:00:00 12.9 14 Noroeste 20 Noroeste 0 -- -- 64
2019-09-08 22:00:00 13.5 13 Noroeste 20 Noroeste 0 -- -- 62
2019-09-08 21:00:00 16.2 14 Noroeste 26 Norte 0 -- -- 53
2019-09-08 20:00:00 19 19 Norte 39 Norte 0 -- -- 41
2019-09-08 19:00:00 20.7 27 Norte 37 Norte 0 -- -- 37
2019-09-08 18:00:00 22.2 24 Norte 37 Noroeste 0 -- -- 39
2019-09-08 17:00:00 22.9 26 Noroeste 42 Noroeste 0 -- -- 42
2019-09-08 16:00:00 23 18 Noroeste 30 Norte 0 -- -- 45
2019-09-08 15:00:00 23.1 16 Noroeste 28 Norte 0 -- -- 41
2019-09-08 14:00:00 22 17 Norte 36 Noroeste 0 -- -- 46
2019-09-08 13:00:00 21.1 18 Norte 37 Norte 0 -- -- 51
2019-09-08 12:00:00 19.1 10 Norte 19 Oeste 0 -- -- 64
2019-09-08 11:00:00 17.3 12 Noroeste 27 Noroeste 0 -- -- 69
2019-09-08 10:00:00 16.5 9 Noroeste 17 Noroeste 0 -- -- 73
2019-09-08 09:00:00 14.4 6 Noroeste 8 Noroeste 0 -- -- 81
2019-09-08 08:00:00 13.3 3 Oeste 13 Oeste 0 -- -- 84
2019-09-08 07:00:00 11.5 6 Noroeste 16 Noroeste 0 -- -- 87
2019-09-08 06:00:00 12.5 9 Noroeste 15 Oeste 0 -- -- 86
2019-09-08 05:00:00 12.6 5 Noroeste 18 Oeste 0 -- -- 84
2019-09-08 04:00:00 12.7 11 Noroeste 15 Noroeste 0 -- -- 83
2019-09-08 03:00:00 12.8 3 Sur 14 Oeste 0 -- -- 82
2019-09-08 02:00:00 13.2 2 Noroeste 17 Noroeste 0 -- -- 79
2019-09-08 01:00:00 14.2 13 Noroeste 28 Oeste 0 -- -- 74
2019-09-08 00:00:00 14.5 19 Noroeste 28 Noroeste 0 -- -- 70
2019-09-07 23:00:00 15.3 18 Noroeste 36 Norte 0 -- -- 65
2019-09-07 22:00:00 16.1 21 Norte 33 Norte 0 -- -- 64
2019-09-07 21:00:00 16.9 13 Norte 44 Norte 0 -- -- 61
2019-09-07 20:00:00 18.6 24 Norte 40 Norte 0 -- -- 53
2019-09-07 19:00:00 20.4 27 Norte 44 Norte 0 -- -- 46
2019-09-07 18:00:00 22 28 Norte 49 Norte 0 -- -- 43
2019-09-07 17:00:00 23 28 Norte 41 Norte 0 -- -- 37
2019-09-07 16:00:00 23.4 24 Norte 37 Norte 0 -- -- 35
2019-09-07 15:00:00 22.8 23 Norte 40 Norte 0 -- -- 35
2019-09-07 14:00:00 22.2 22 Norte 43 Norte 0 -- -- 37
2019-09-07 13:00:00 20.9 23 Norte 33 Norte 0 -- -- 42
2019-09-07 12:00:00 19.6 22 Norte 33 Norte 0 -- -- 44
2019-09-07 11:00:00 18 23 Norte 34 Norte 0 -- -- 52
2019-09-07 10:00:00 16.8 13 Noroeste 29 Noroeste 0 -- -- 56
2019-09-07 09:00:00 13.7 9 Noroeste 22 Oeste 0 -- -- 73
2019-09-07 08:00:00 10.8 13 Noroeste 19 Noroeste 0 -- -- 80
2019-09-07 07:00:00 11 10 Noroeste 22 Noroeste 0 -- -- 80
2019-09-07 06:00:00 10.8 9 Noroeste 18 Oeste 0 -- -- 80
2019-09-07 05:00:00 12.1 9 Noroeste 25 Oeste 0 -- -- 72
2019-09-07 04:00:00 12.3 10 Noroeste 24 Norte 0 -- -- 72
2019-09-07 03:00:00 13.7 21 Noroeste 34 Noroeste 0 -- -- 65
2019-09-07 02:00:00 14 19 Noroeste 29 Noroeste 0 -- -- 65
2019-09-07 01:00:00 13.8 13 Noroeste 32 Oeste 0 -- -- 66
2019-09-07 00:00:00 14.4 18 Noroeste 36 Noroeste 0 -- -- 64
2019-09-06 23:00:00 14.9 23 Noroeste 40 Noroeste 0 -- -- 61
2019-09-06 22:00:00 15.1 26 Noroeste 42 Noroeste 0 -- -- 60
2019-09-06 21:00:00 15.5 29 Noroeste 44 Noroeste 0 -- -- 57
2019-09-06 20:00:00 17 30 Noroeste 46 Noroeste 0 -- -- 52
2019-09-06 19:00:00 18.7 33 Noroeste 44 Norte 0 -- -- 48
2019-09-06 18:00:00 19.6 30 Norte 48 Norte 0 -- -- 44
2019-09-06 17:00:00 20 32 Norte 47 Norte 0 -- -- 42
2019-09-06 16:00:00 20.4 33 Norte 50 Norte 0 -- -- 42
2019-09-06 15:00:00 20.9 31 Norte 51 Norte 0 -- -- 39
2019-09-06 14:00:00 20.3 30 Norte 50 Norte 0 -- -- 39
2019-09-06 13:00:00 19.8 31 Norte 50 Noroeste 0 -- -- 41
2019-09-06 12:00:00 18.8 30 Noroeste 56 Noroeste 0 -- -- 46
2019-09-06 11:00:00 18 35 Noroeste 55 Noroeste 0 -- -- 48
2019-09-06 10:00:00 17 30 Noroeste 42 Norte 0 -- -- 52
2019-09-06 09:00:00 14.7 20 Noroeste 28 Noroeste 0 -- -- 66
2019-09-06 08:00:00 12.2 12 Noroeste 22 Oeste 0 -- -- 79
2019-09-06 07:00:00 12.1 19 Noroeste 27 Noroeste 0 -- -- 79
2019-09-06 06:00:00 11.8 12 Noroeste 17 Oeste 0 -- -- 78
2019-09-06 05:00:00 12.1 4 Noroeste 20 Noroeste 0 -- -- 73
2019-09-06 04:00:00 13 17 Noroeste 32 Noroeste 0 -- -- 69
2019-09-06 03:00:00 13.5 25 Noroeste 33 Noroeste 0 -- -- 66
2019-09-06 02:00:00 13.1 19 Noroeste 28 Noroeste 0 -- -- 69
2019-09-06 01:00:00 14.4 22 Noroeste 35 Noroeste 0 -- -- 64
2019-09-06 00:00:00 14.7 18 Noroeste 37 Noroeste 0 -- -- 64
2019-09-05 23:00:00 14.2 21 Noroeste 47 Noroeste 0 -- -- 63
2019-09-05 22:00:00 14.8 27 Noroeste 39 Noroeste 0 -- -- 61
2019-09-05 21:00:00 15.6 24 Noroeste 40 Noroeste 0 -- -- 59
2019-09-05 20:00:00 17.1 25 Noroeste 44 Noroeste 0 -- -- 55
2019-09-05 19:00:00 18.7 26 Noroeste 48 Noroeste 0 -- -- 53
2019-09-05 18:00:00 20.1 32 Noroeste 42 Norte 0 -- -- 48
2019-09-05 17:00:00 19.3 29 Norte 57 Noroeste 0 -- -- 49
2019-09-05 16:00:00 20.1 28 Norte 46 Noroeste 0 -- -- 48
2019-09-05 15:00:00 19.7 23 Norte 63 Noroeste 0 -- -- 47
2019-09-05 14:00:00 20.2 28 Norte 48 Norte 0 -- -- 45
2019-09-05 13:00:00 19.7 26 Norte 39 Norte 0 -- -- 49
2019-09-05 12:00:00 18.5 24 Noroeste 35 Oeste 0 -- -- 52
2019-09-05 11:00:00 17.8 19 Norte 35 Noroeste 0 -- -- 57
2019-09-05 10:00:00 18.2 22 Norte 33 Norte 0 -- -- 50
2019-09-05 09:00:00 16.9 6 Oeste 25 Noroeste 0 -- -- 64
2019-09-05 08:00:00 15.9 13 Noroeste 35 Noroeste 0 -- -- 68
2019-09-05 07:00:00 15.8 19 Noroeste 33 Norte 0 -- -- 72
2019-09-05 06:00:00 16.8 14 Noroeste 26 Noroeste 0 -- -- 72
2019-09-05 05:00:00 16.5 18 Oeste 27 Oeste 0 -- -- 75
2019-09-05 04:00:00 16 16 Oeste 28 Oeste 0 -- -- 74
2019-09-05 03:00:00 15.8 17 Oeste 25 Oeste 0 -- -- 70
2019-09-05 02:00:00 15.7 20 Oeste 27 Noroeste 0 -- -- 69
2019-09-05 01:00:00 16.1 17 Noroeste 24 Noroeste 0 -- -- 70
2019-09-05 00:00:00 16.4 21 Noroeste 37 Noroeste 0 -- -- 66
2019-09-04 23:00:00 16.8 22 Noroeste 34 Noroeste 0 -- -- 66
2019-09-04 22:00:00 17.1 18 Noroeste 32 Noroeste 0 -- -- 64
2019-09-04 21:00:00 18.4 19 Noroeste 46 Norte 0 -- -- 58
2019-09-04 20:00:00 20.4 29 Norte 50 Noroeste 0 -- -- 54
2019-09-04 19:00:00 22.4 33 Noroeste 52 Norte 0 -- -- 49
2019-09-04 18:00:00 24.2 28 Norte 43 Noroeste 0 -- -- 45
2019-09-04 17:00:00 25.5 27 Noroeste 41 Norte 0 -- -- 43
2019-09-04 16:00:00 26.2 26 Norte 39 Norte 0 -- -- 41
2019-09-04 15:00:00 26.9 23 Norte 39 Noroeste 0 -- -- 38
2019-09-04 14:00:00 26.8 17 Norte 27 Norte 0 -- -- 37
2019-09-04 13:00:00 25.5 15 Norte 28 Norte 0 -- -- 39
2019-09-04 12:00:00 22.1 11 Noroeste 22 Noroeste 0 -- -- 47
2019-09-04 11:00:00 19.5 6 Noroeste 12 Noroeste 0 -- -- 55
2019-09-04 10:00:00 16.9 4 Norte 10 Oeste 0 -- -- 62
2019-09-04 09:00:00 13.4 4 Noroeste 7 Noroeste 0 -- -- 76
2019-09-04 08:00:00 12 2 Noroeste 7 Noroeste 0 -- -- 78
2019-09-04 07:00:00 11.9 3 Noroeste 9 Noroeste 0 -- -- 79
2019-09-04 06:00:00 12.3 6 Noroeste 9 Noroeste 0 -- -- 80
2019-09-04 05:00:00 12.3 6 Noroeste 9 Noroeste 0 -- -- 81
2019-09-04 04:00:00 11.9 7 Noroeste 12 Noroeste 0 -- -- 82
2019-09-04 03:00:00 13.4 3 Noroeste 9 Noroeste 0 -- -- 75
2019-09-04 02:00:00 14.8 6 Noroeste 9 Noroeste 0 -- -- 72
2019-09-04 01:00:00 15.2 6 Norte 18 Noroeste 0 -- -- 71
2019-09-04 00:00:00 15.1 13 Noroeste 15 Noroeste 0 -- -- 74
2019-09-03 23:00:00 17 9 Noroeste 21 Norte 0 -- -- 66
2019-09-03 22:00:00 19.2 15 Norte 30 Norte 0 -- -- 60
2019-09-03 21:00:00 20.2 15 Norte 35 Norte 0 -- -- 59
2019-09-03 20:00:00 23 22 Norte 37 Norte 0 -- -- 48
2019-09-03 19:00:00 25.2 23 Norte 36 Norte 0 -- -- 40
2019-09-03 18:00:00 26.7 23 Norte 33 Nordeste 0 -- -- 36
2019-09-03 17:00:00 27.7 23 Norte 32 Norte 0 -- -- 31
2019-09-03 16:00:00 27.7 16 Norte 26 Nordeste 0 -- -- 29
2019-09-03 15:00:00 27.1 12 Norte 21 Norte 0 -- -- 31
2019-09-03 14:00:00 26 10 Noroeste 21 Nordeste 0 -- -- 32
2019-09-03 13:00:00 24.3 6 Norte 22 Oeste 0 -- -- 35
2019-09-03 12:00:00 22.5 11 Noroeste 18 Noroeste 0 -- -- 39
2019-09-03 11:00:00 20.1 6 Noroeste 19 Oeste 0 -- -- 48
2019-09-03 10:00:00 17.7 10 Oeste 18 Oeste 0 -- -- 62
2019-09-03 09:00:00 14.4 10 Oeste 17 Oeste 0 -- -- 76
2019-09-03 08:00:00 12 6 Sudoeste 14 Oeste 0 -- -- 84
2019-09-03 07:00:00 12 8 Oeste 16 Oeste 0 -- -- 83
2019-09-03 06:00:00 13.4 9 Oeste 15 Noroeste 0 -- -- 79
2019-09-03 05:00:00 13.4 11 Noroeste 16 Oeste 0 -- -- 78
2019-09-03 04:00:00 14 6 Oeste 19 Noroeste 0 -- -- 74
2019-09-03 03:00:00 14.3 6 Noroeste 27 Oeste 0 -- -- 71
2019-09-03 02:00:00 14.9 18 Oeste 26 Oeste 0 -- -- 72
2019-09-03 01:00:00 14.8 11 Noroeste 29 Noroeste 0 -- -- 70
2019-09-03 00:00:00 15 14 Noroeste 24 Noroeste 0 -- -- 66
2019-09-02 23:00:00 15.6 16 Noroeste 36 Noroeste 0 -- -- 63
2019-09-02 22:00:00 16.8 18 Noroeste 47 Noroeste 0 -- -- 61
2019-09-02 21:00:00 17.8 24 Noroeste 43 Noroeste 0 -- -- 58
2019-09-02 20:00:00 19.3 28 Noroeste 48 Noroeste 0 -- -- 55
2019-09-02 19:00:00 21.3 29 Norte 46 Noroeste 0 -- -- 48
2019-09-02 18:00:00 22.6 27 Norte 39 Norte 0 -- -- 44
2019-09-02 17:00:00 23 26 Norte 40 Norte 0 -- -- 43
2019-09-02 16:00:00 23.2 22 Norte 36 Norte 0 -- -- 40
2019-09-02 15:00:00 22.9 22 Noroeste 48 Noroeste 0 -- -- 41
2019-09-02 14:00:00 21.5 27 Norte 41 Noroeste 0 -- -- 45
2019-09-02 13:00:00 20.9 24 Norte 58 Norte 0 -- -- 48
2019-09-02 12:00:00 20.4 26 Norte 45 Noroeste 0 -- -- 49
2019-09-02 11:00:00 19.3 24 Noroeste 38 Noroeste 0 -- -- 49
2019-09-02 10:00:00 17.9 25 Noroeste 37 Noroeste 0 -- -- 51
2019-09-02 09:00:00 16.4 19 Noroeste 25 Noroeste 0 -- -- 60
2019-09-02 08:00:00 15.8 15 Noroeste 28 Norte 0 -- -- 62
2019-09-02 07:00:00 15.7 19 Noroeste 32 Noroeste 0 -- -- 64
2019-09-02 06:00:00 15.5 21 Noroeste 32 Noroeste 0 -- -- 69
2019-09-02 05:00:00 15.6 21 Noroeste 31 Noroeste 0 -- -- 69
2019-09-02 04:00:00 15.1 13 Noroeste 23 Noroeste 0 -- -- 73
2019-09-02 03:00:00 15.2 11 Noroeste 26 Noroeste 0 -- -- 77
2019-09-02 02:00:00 16.3 16 Noroeste 31 Noroeste 0 -- -- 73
2019-09-02 01:00:00 17.1 13 Noroeste 33 Noroeste 0 -- -- 75
2019-09-02 00:00:00 17.6 21 Noroeste 32 Norte 0 -- -- 76
2019-09-01 23:00:00 18.3 19 Noroeste 27 Norte 0 -- -- 72
2019-09-01 22:00:00 19 21 Norte 36 Noroeste 0 -- -- 70
2019-09-01 21:00:00 19.5 25 Norte 39 Norte 0 -- -- 69
2019-09-01 20:00:00 21.9 22 Norte 41 Noroeste 0 -- -- 58
2019-09-01 19:00:00 23.6 27 Noroeste 44 Norte 0 -- -- 50
2019-09-01 18:00:00 25.5 23 Norte 35 Norte 0 -- -- 45
2019-09-01 17:00:00 24.5 19 Norte 31 Norte 0 -- -- 50
2019-09-01 16:00:00 24.3 17 Norte 31 Noroeste 0 -- -- 53
2019-09-01 15:00:00 24.7 22 Noroeste 31 Noroeste 0 -- -- 51
2019-09-01 14:00:00 25.9 15 Norte 30 Noroeste 0 -- -- 48
2019-09-01 13:00:00 25.2 19 Norte 29 Norte 0 -- -- 49
2019-09-01 12:00:00 24.2 16 Norte 31 Norte 0 -- -- 51
2019-09-01 11:00:00 22.1 23 Norte 31 Norte 0 -- -- 56
2019-09-01 10:00:00 20.6 13 Norte 19 Noroeste 0 -- -- 64
2019-09-01 09:00:00 19 9 Noroeste 17 Norte 0 -- -- 74
2019-09-01 08:00:00 18 8 Norte 18 Norte 0 -- -- 77
2019-09-01 07:00:00 17.5 12 Norte 16 Norte 0 -- -- 79
2019-09-01 06:00:00 17.2 9 Norte 18 Norte 0 -- -- 82
2019-09-01 05:00:00 17.9 13 Norte 20 Norte 0 -- -- 81
2019-09-01 04:00:00 18.5 12 Norte 22 Norte 0 -- -- 79
2019-09-01 03:00:00 18.9 15 Norte 23 Noroeste 0 -- -- 79
2019-09-01 02:00:00 19.5 14 Norte 26 Norte 0 -- -- 78
2019-09-01 01:00:00 20 14 Norte 23 Noroeste 0 -- -- 78
2019-09-01 00:00:00 20.3 15 Norte 23 Norte 0 -- -- 76
2019-08-31 23:00:00 20.4 13 Norte 26 Norte 0 -- -- 75
2019-08-31 22:00:00 20.9 18 Norte 33 Norte 0 -- -- 73
2019-08-31 21:00:00 21.8 24 Norte 45 Norte 0 -- -- 71
2019-08-31 20:00:00 24 31 Norte 47 Norte 0 -- -- 66
2019-08-31 19:00:00 27.8 28 Norte 41 Norte 0 -- -- 55
2019-08-31 18:00:00 35 5 Oeste 25 Sur 0 -- -- 27
2019-08-31 17:00:00 35.1 10 Sur 26 Sur 0 -- -- 28
2019-08-31 16:00:00 33.7 8 Noroeste 24 Este 0 -- -- 31
2019-08-31 15:00:00 33 5 Sudeste 18 Sudeste 0 -- -- 33
2019-08-31 14:00:00 32.2 8 Sur 19 Sur 0 -- -- 33
2019-08-31 13:00:00 30.5 12 Sudeste 22 Sur 0 -- -- 40
2019-08-31 12:00:00 28.1 9 Sudeste 17 Sudeste 0 -- -- 47
2019-08-31 11:00:00 26.5 10 Sudeste 16 Sudeste 0 -- -- 50
2019-08-31 10:00:00 22.7 3 Norte 11 Norte 0 -- -- 69
2019-08-31 09:00:00 19.8 7 Norte 13 Norte 0 -- -- 80
2019-08-31 08:00:00 17.6 8 Norte 11 Norte 0 -- -- 88
2019-08-31 07:00:00 18.3 7 Norte 13 Noroeste 0 -- -- 87
2019-08-31 06:00:00 18.4 12 Noroeste 14 Norte 0 -- -- 84
2019-08-31 05:00:00 19.4 4 Noroeste 10 Norte 0 -- -- 83
2019-08-31 04:00:00 20.4 5 Norte 10 Noroeste 0 -- -- 83
2019-08-31 03:00:00 20.1 8 Norte 12 Noroeste 0 -- -- 84
2019-08-31 02:00:00 21.9 5 Noroeste 9 Sur 0 -- -- 77
2019-08-31 01:00:00 23.5 2 Sur 12 Norte 0 -- -- 65
2019-08-31 00:00:00 23.4 8 Norte 11 Norte 0 -- -- 70
2019-08-30 23:00:00 25.8 9 Norte 23 Norte 0 -- -- 63
2019-08-30 22:00:00 27.1 10 Norte 19 Nordeste 0 -- -- 49
2019-08-30 21:00:00 29.4 4 Sudeste 11 Sudeste 0 -- -- 40
2019-08-30 20:00:00 32.2 9 Sudeste 13 Sudeste 0 -- -- 33
2019-08-30 19:00:00 33.9 7 Este 18 Sudeste 0 -- -- 28
2019-08-30 18:00:00 34.3 9 Este 16 Este 0 -- -- 29
2019-08-30 17:00:00 34.1 9 Sudeste 21 Sur 0 -- -- 29
2019-08-30 16:00:00 33.3 15 Sudeste 24 Sur 0 -- -- 35
2019-08-30 15:00:00 32.4 10 Sudeste 31 Sudeste 0 -- -- 39
2019-08-30 14:00:00 30.5 11 Sudeste 23 Sur 0 -- -- 45
2019-08-30 13:00:00 28.8 12 Sudeste 23 Este 0 -- -- 50
2019-08-30 12:00:00 26.6 8 Sudeste 19 Sudeste 0 -- -- 55
2019-08-30 11:00:00 24.7 4 Este 17 Sudeste 0 -- -- 61
2019-08-30 10:00:00 21.5 8 Norte 12 Noroeste 0 -- -- 72
2019-08-30 09:00:00 19.2 6 Noroeste 10 Noroeste 0 -- -- 82
2019-08-30 08:00:00 17.3 6 Noroeste 9 Norte 0 -- -- 88
2019-08-30 07:00:00 18.1 5 Noroeste 13 Oeste 0 -- -- 86
2019-08-30 06:00:00 18.5 7 Oeste 12 Oeste 0 -- -- 84
2019-08-30 05:00:00 18.4 9 Noroeste 17 Noroeste 0 -- -- 83
2019-08-30 04:00:00 19.2 13 Noroeste 21 Norte 0 -- -- 81
2019-08-30 03:00:00 20.2 11 Norte 18 Noroeste 0 -- -- 79
2019-08-30 02:00:00 20.8 16 Noroeste 34 Norte 0 -- -- 78
2019-08-30 01:00:00 21.6 22 Norte 40 Norte 0 -- -- 76
2019-08-30 00:00:00 22.5 22 Norte 34 Norte 0 -- -- 74
2019-08-29 23:00:00 23.1 23 Norte 38 Norte 0 -- -- 73
2019-08-29 22:00:00 24.1 24 Norte 35 Norte 0 -- -- 70
2019-08-29 21:00:00 26.3 17 Norte 28 Norte 0 -- -- 65
2019-08-29 20:00:00 31.2 7 Sudeste 14 Sudeste 0 -- -- 38
2019-08-29 19:00:00 32.2 8 Sur 19 Sur 0 -- -- 35
2019-08-29 18:00:00 32 10 Sur 19 Sur 0 -- -- 35
2019-08-29 17:00:00 32.6 10 Sudeste 20 Sudeste 0 -- -- 35
2019-08-29 16:00:00 33.1 13 Sudeste 21 Sur 0 -- -- 34
2019-08-29 15:00:00 31.8 13 Sudeste 26 Sudeste 0 -- -- 37
2019-08-29 14:00:00 30.4 13 Sudeste 27 Sudeste 0 -- -- 42
2019-08-29 13:00:00 28.6 15 Sudeste 24 Sudeste 0 -- -- 47
2019-08-29 12:00:00 26.7 14 Sudeste 21 Sudeste 0 -- -- 53
2019-08-29 11:00:00 24.3 8 Sudeste 15 Sudeste 0 -- -- 60
2019-08-29 10:00:00 21.2 7 Noroeste 10 Noroeste 0 -- -- 75
2019-08-29 09:00:00 18.5 4 Noroeste 8 Noroeste 0 -- -- 86
2019-08-29 08:00:00 16.6 9 Noroeste 14 Noroeste 0 -- -- 90
2019-08-29 07:00:00 16.6 8 Noroeste 11 Noroeste 0 -- -- 90
2019-08-29 06:00:00 17.1 11 Noroeste 14 Noroeste 0 -- -- 89
2019-08-29 05:00:00 17.6 12 Noroeste 15 Norte 0 -- -- 89
2019-08-29 04:00:00 18.1 9 Noroeste 11 Norte 0 -- -- 87
2019-08-29 03:00:00 18.8 8 Norte 14 Norte 0 -- -- 87
2019-08-29 02:00:00 19.9 10 Noroeste 17 Norte 0 -- -- 83
2019-08-29 01:00:00 20.7 13 Norte 26 Norte 0 -- -- 80
2019-08-29 00:00:00 21.7 18 Norte 27 Norte 0 -- -- 78
2019-08-28 23:00:00 22.8 19 Norte 37 Norte 0 -- -- 74
2019-08-28 22:00:00 23.8 23 Norte 31 Norte 0 -- -- 72
2019-08-28 21:00:00 25.8 18 Norte 28 Norte 0 -- -- 64
2019-08-28 20:00:00 28.9 18 Norte 26 Norte 0 -- -- 51
2019-08-28 19:00:00 31 8 Norte 18 Norte 0 -- -- 36
2019-08-28 18:00:00 31 10 Norte 19 Nordeste 0 -- -- 36
2019-08-28 17:00:00 31.1 10 Norte 20 Nordeste 0 -- -- 34
2019-08-28 16:00:00 30.5 8 Norte 16 Noroeste 0 -- -- 36
2019-08-28 15:00:00 29.2 7 Noroeste 17 Noroeste 0 -- -- 40
2019-08-28 14:00:00 28 4 Norte 16 Sudeste 0 -- -- 48
2019-08-28 13:00:00 26.4 6 Sudeste 14 Sudeste 0 -- -- 57
2019-08-28 12:00:00 24.6 3 Este 12 Oeste 0 -- -- 61
2019-08-28 11:00:00 22.2 4 Nordeste 12 Norte 0 -- -- 72
2019-08-28 10:00:00 19.7 4 Norte 14 Noroeste 0 -- -- 84
2019-08-28 09:00:00 17.2 4 Noroeste 9 Noroeste 0 -- -- 93
2019-08-28 08:00:00 15.7 5 Noroeste 8 Noroeste 0 -- -- 94
2019-08-28 07:00:00 15.3 6 Noroeste 10 Norte 0 -- -- 94
2019-08-28 06:00:00 15.8 6 Noroeste 10 Noroeste 0 -- -- 93
2019-08-28 05:00:00 16.6 7 Noroeste 9 Noroeste 0 -- -- 92
2019-08-28 04:00:00 17.2 3 Noroeste 10 Noroeste 0 -- -- 91
2019-08-28 03:00:00 17 9 Noroeste 15 Noroeste 0 -- -- 91
2019-08-28 02:00:00 18 8 Noroeste 17 Norte 0 -- -- 88
2019-08-28 01:00:00 19.8 13 Norte 19 Norte 0 -- -- 83
2019-08-28 00:00:00 19.4 11 Noroeste 17 Noroeste 0 -- -- 84
2019-08-27 23:00:00 20.1 11 Norte 22 Norte 0 -- -- 81
2019-08-27 22:00:00 21.4 14 Norte 24 Norte 0 -- -- 77
2019-08-27 21:00:00 22.4 15 Norte 31 Norte 0 -- -- 73
2019-08-27 20:00:00 24.4 21 Norte 37 Norte 0 -- -- 62
2019-08-27 19:00:00 27.1 10 Norte 15 Norte 0 -- -- 47
2019-08-27 18:00:00 26.1 11 Norte 16 Norte 0 -- -- 49
2019-08-27 17:00:00 27.8 8 Sudeste 21 Sudeste 0 -- -- 43
2019-08-27 16:00:00 27.3 4 Sudoeste 17 Este 0 -- -- 46
2019-08-27 15:00:00 26.1 6 Sudeste 17 Oeste -- -- -- 52
2019-08-27 14:00:00 23.8 6 Oeste 16 Sur 0 -- -- 68
2019-08-27 13:00:00 21.4 8 Sudeste 13 Sudeste 0 -- -- 77
2019-08-27 12:00:00 20.6 2 Noroeste 9 Oeste 0 -- -- 80
2019-08-27 11:00:00 19.5 2 Sudeste 6 Este 0 -- -- 87
2019-08-27 10:00:00 18 0 Calma 10 Noroeste 0 -- -- 90
2019-08-27 09:00:00 17.1 8 Noroeste 12 Norte 0 -- -- 94
2019-08-27 08:00:00 16.8 7 Noroeste 12 Nordeste 0 -- -- 94
2019-08-27 07:00:00 16.6 2 Este 6 Nordeste 0 -- -- 94
2019-08-27 06:00:00 16.5 3 Noroeste 5 Sudoeste 0 -- -- 93
2019-08-27 05:00:00 16.8 4 Oeste 7 Nordeste 0 -- -- 92
2019-08-27 04:00:00 16.8 3 Sudoeste 10 Noroeste 0 -- -- 92
2019-08-27 03:00:00 17 2 Oeste 13 Oeste 0.6 -- -- 91
2019-08-27 02:00:00 17.4 5 Oeste 20 Noroeste 1 -- -- 91
2019-08-27 01:00:00 17.9 6 Norte 15 Noroeste 0.4 -- -- 85
2019-08-27 00:00:00 18 5 Sur 33 Noroeste 0.2 -- -- 84
2019-08-26 23:00:00 18.2 29 Noroeste 72 Oeste 0.4 -- -- 80
2019-08-26 22:00:00 18.7 24 Sudoeste 73 Oeste 0 -- -- 83
2019-08-26 21:00:00 26.4 7 Sudeste 24 Sudeste 0 -- -- 42
2019-08-26 20:00:00 28 19 Sudeste 45 Este 0 -- -- 38
2019-08-26 19:00:00 28.9 28 Sudeste 40 Sudeste 0 -- -- 39
2019-08-26 18:00:00 30.2 24 Sudeste 40 Sudeste 0 -- -- 37
2019-08-26 17:00:00 30.4 26 Sudeste 44 Sudeste 0 -- -- 38
2019-08-26 16:00:00 29.8 28 Sudeste 57 Sudeste 0 -- -- 41
2019-08-26 15:00:00 28.5 32 Sudeste 46 Sudeste 0 -- -- 42
2019-08-26 14:00:00 29.8 30 Sudeste 45 Sudeste 0 -- -- 39
2019-08-26 13:00:00 27.9 13 Sudeste 27 Este 0 -- -- 41
2019-08-26 12:00:00 25.1 11 Sur 20 Sur 0 -- -- 49
2019-08-26 11:00:00 21.7 5 Sur 9 Sudoeste 0 -- -- 61
2019-08-26 10:00:00 18.4 4 Noroeste 10 Noroeste 0 -- -- 84
2019-08-26 09:00:00 17.9 5 Norte 12 Noroeste 0 -- -- 86
2019-08-26 08:00:00 16.4 8 Norte 11 Noroeste 0 -- -- 90
2019-08-26 07:00:00 16.5 10 Norte 15 Noroeste 0 -- -- 89
2019-08-26 06:00:00 17.7 8 Norte 15 Norte 0 -- -- 88
2019-08-26 05:00:00 18.4 8 Noroeste 13 Noroeste 0 -- -- 85
2019-08-26 04:00:00 19.6 6 Noroeste 14 Norte 0 -- -- 81
2019-08-26 03:00:00 20.3 10 Norte 18 Norte 0 -- -- 78
2019-08-26 02:00:00 21 15 Norte 27 Norte 0 -- -- 76
2019-08-26 01:00:00 21.7 19 Norte 32 Norte 0 -- -- 74
2019-08-26 00:00:00 22 23 Norte 35 Norte 0 -- -- 73
2019-08-25 23:00:00 22.6 24 Norte 35 Norte 0 -- -- 70
2019-08-25 22:00:00 23.9 22 Norte 37 Norte 0 -- -- 65
2019-08-25 21:00:00 26.6 24 Norte 35 Norte 0 -- -- 55
2019-08-25 20:00:00 31.8 6 Este 27 Sudeste 0 -- -- 36
2019-08-25 19:00:00 33.4 19 Sudeste 32 Sudeste 0 -- -- 24
2019-08-25 18:00:00 34.1 21 Sudeste 32 Sudeste 0 -- -- 24
2019-08-25 17:00:00 34.2 19 Sudeste 33 Sudeste 0 -- -- 26
2019-08-25 16:00:00 33.8 17 Sudeste 31 Sudeste 0 -- -- 26
2019-08-25 15:00:00 32.9 22 Sudeste 33 Sudeste 0 -- -- 30
2019-08-25 14:00:00 32.2 25 Sudeste 36 Sudeste 0 -- -- 32
2019-08-25 13:00:00 30.6 23 Sudeste 36 Sudeste 0 -- -- 36
2019-08-25 12:00:00 28.4 20 Sudeste 28 Sudeste 0 -- -- 43
2019-08-25 11:00:00 25.3 17 Sudeste 23 Sudeste 0 -- -- 51
2019-08-25 10:00:00 22.6 6 Este 10 Norte 0 -- -- 68
2019-08-25 09:00:00 18.9 8 Noroeste 14 Noroeste 0 -- -- 87
2019-08-25 08:00:00 17.2 8 Norte 13 Noroeste 0 -- -- 91
2019-08-25 07:00:00 17.9 8 Norte 18 Noroeste 0 -- -- 88
2019-08-25 06:00:00 18.8 8 Noroeste 24 Norte 0 -- -- 85
2019-08-25 05:00:00 19.3 12 Norte 19 Norte 0 -- -- 84
2019-08-25 04:00:00 19.6 7 Noroeste 22 Norte 0 -- -- 83
2019-08-25 03:00:00 20.4 12 Norte 25 Norte 0 -- -- 81
2019-08-25 02:00:00 21.3 17 Norte 26 Norte 0 -- -- 78
2019-08-25 01:00:00 22.1 17 Norte 24 Norte 0 -- -- 75
2019-08-25 00:00:00 23.3 16 Norte 26 Norte 0 -- -- 69
2019-08-24 23:00:00 24 5 Nordeste 10 Norte 0 -- -- 53
2019-08-24 22:00:00 25.6 5 Norte 13 Noroeste 0 -- -- 42
2019-08-24 21:00:00 28.6 9 Sudeste 17 Sudeste 0 -- -- 33
2019-08-24 20:00:00 31.5 10 Sudeste 17 Sudeste 0 -- -- 25
2019-08-24 19:00:00 33.6 11 Sudeste 20 Sudeste 0 -- -- 21
2019-08-24 18:00:00 33.9 14 Sudeste 28 Sudeste 0 -- -- 21
2019-08-24 17:00:00 33.8 16 Sudeste 26 Este 0 -- -- 25
2019-08-24 16:00:00 33.4 14 Sudeste 28 Sudeste 0 -- -- 29
2019-08-24 15:00:00 32.2 12 Sudeste 28 Sudeste 0 -- -- 33
2019-08-24 14:00:00 30.8 18 Sudeste 28 Sudeste 0 -- -- 36
2019-08-24 13:00:00 29.7 17 Sudeste 30 Este 0 -- -- 40
2019-08-24 12:00:00 27.4 18 Sudeste 26 Sudeste 0 -- -- 46
2019-08-24 11:00:00 25.3 15 Sudeste 24 Sudeste 0 -- -- 52
2019-08-24 10:00:00 21.6 5 Noroeste 8 Noroeste 0 -- -- 57
2019-08-24 09:00:00 17.3 5 Noroeste 9 Noroeste 0 -- -- 68
2019-08-24 08:00:00 14.7 8 Noroeste 9 Norte 0 -- -- 70
2019-08-24 07:00:00 15.8 5 Norte 8 Noroeste 0 -- -- 71
2019-08-24 06:00:00 15.8 0 Calma 11 Norte 0 -- -- 69
2019-08-24 05:00:00 17.2 9 Norte 13 Norte 0 -- -- 65
2019-08-24 04:00:00 17.4 9 Norte 13 Norte 0 -- -- 64
2019-08-24 03:00:00 17.8 10 Norte 12 Noroeste 0 -- -- 61
2019-08-24 02:00:00 19.8 8 Norte 12 Norte 0 -- -- 56
2019-08-24 01:00:00 20.1 10 Noroeste 12 Noroeste 0 -- -- 55
2019-08-24 00:00:00 21 5 Norte 9 Nordeste 0 -- -- 53
2019-08-23 23:00:00 22.1 9 Norte 15 Sudeste 0 -- -- 51
2019-08-23 22:00:00 25.4 13 Sudeste 17 Sudeste 0 -- -- 46
2019-08-23 21:00:00 27.7 11 Sudeste 16 Sudeste 0 -- -- 35
2019-08-23 20:00:00 30.6 12 Sudeste 16 Sudeste 0 -- -- 30
2019-08-23 19:00:00 32.1 9 Sudeste 19 Sudeste 0 -- -- 27
2019-08-23 18:00:00 32.4 11 Sudeste 25 Sudeste 0 -- -- 28
2019-08-23 17:00:00 32.4 15 Sudeste 29 Sudeste 0 -- -- 29
2019-08-23 16:00:00 32 16 Sudeste 28 Sudeste 0 -- -- 32
2019-08-23 15:00:00 30.7 15 Sudeste 27 Sur 0 -- -- 37
2019-08-23 14:00:00 29.7 14 Sudeste 28 Sudeste 0 -- -- 38
2019-08-23 13:00:00 27.6 18 Sudeste 31 Sur 0 -- -- 43
2019-08-23 12:00:00 25.5 14 Sudeste 23 Este 0 -- -- 47
2019-08-23 11:00:00 22.2 9 Sudeste 13 Sudeste 0 -- -- 55
2019-08-23 10:00:00 18.2 5 Noroeste 12 Norte 0 -- -- 66
2019-08-23 09:00:00 14 6 Noroeste 14 Norte 0 -- -- 80
2019-08-23 08:00:00 11 8 Norte 10 Norte 0 -- -- 85
2019-08-23 07:00:00 12 3 Norte 8 Norte 0 -- -- 85
2019-08-23 06:00:00 11.9 3 Oeste 11 Nordeste 0 -- -- 80
2019-08-23 05:00:00 13.1 3 Sudoeste 13 Noroeste 0 -- -- 79
2019-08-23 04:00:00 13.2 12 Noroeste 14 Noroeste 0 -- -- 75
2019-08-23 03:00:00 15.2 5 Oeste 7 Noroeste 0 -- -- 68
2019-08-23 02:00:00 15 5 Noroeste 11 Noroeste 0 -- -- 68
2019-08-23 01:00:00 15.5 8 Noroeste 12 Noroeste 0 -- -- 67
2019-08-23 00:00:00 17.2 9 Noroeste 15 Noroeste 0 -- -- 61